sensor_id;sensor_type;location;lat;lon;timestamp;pressure;altitude;pressure_sealevel;temperature
68743;BMP180;55725;42.758;26.702;2023-03-01T00:00:27;100009.00;;;4.80
68743;BMP180;55725;42.758;26.702;2023-03-01T00:02:07;100003.00;;;4.80
68743;BMP180;55725;42.758;26.702;2023-03-01T00:03:48;100008.00;;;4.90
68743;BMP180;55725;42.758;26.702;2023-03-01T00:05:29;100001.00;;;4.80
68743;BMP180;55725;42.758;26.702;2023-03-01T00:07:09;100010.00;;;4.80
68743;BMP180;55725;42.758;26.702;2023-03-01T00:08:49;100004.00;;;4.80
68743;BMP180;55725;42.758;26.702;2023-03-01T00:10:30;100005.00;;;4.80
68743;BMP180;55725;42.758;26.702;2023-03-01T00:12:10;99998.00;;;4.80
68743;BMP180;55725;42.758;26.702;2023-03-01T00:13:52;100006.00;;;4.80
68743;BMP180;55725;42.758;26.702;2023-03-01T00:15:32;100005.00;;;4.80
68743;BMP180;55725;42.758;26.702;2023-03-01T00:17:14;99995.00;;;4.90
68743;BMP180;55725;42.758;26.702;2023-03-01T00:18:55;99998.00;;;4.80
68743;BMP180;55725;42.758;26.702;2023-03-01T00:20:36;100002.00;;;4.80
68743;BMP180;55725;42.758;26.702;2023-03-01T00:22:16;99997.00;;;4.80
68743;BMP180;55725;42.758;26.702;2023-03-01T00:23:56;100003.00;;;4.80
68743;BMP180;55725;42.758;26.702;2023-03-01T00:25:40;99996.00;;;4.90
68743;BMP180;55725;42.758;26.702;2023-03-01T00:27:21;99997.00;;;4.80
68743;BMP180;55725;42.758;26.702;2023-03-01T00:29:01;99994.00;;;4.90
68743;BMP180;55725;42.758;26.702;2023-03-01T00:30:41;100005.00;;;4.80
68743;BMP180;55725;42.758;26.702;2023-03-01T00:32:22;99999.00;;;4.80
68743;BMP180;55725;42.758;26.702;2023-03-01T00:34:03;100000.00;;;4.80
68743;BMP180;55725;42.758;26.702;2023-03-01T00:35:44;100008.00;;;4.80
68743;BMP180;55725;42.758;26.702;2023-03-01T00:37:24;100006.00;;;5.00
68743;BMP180;55725;42.758;26.702;2023-03-01T00:39:05;100009.00;;;4.90
68743;BMP180;55725;42.758;26.702;2023-03-01T00:40:47;100008.00;;;4.80
68743;BMP180;55725;42.758;26.702;2023-03-01T00:42:27;100010.00;;;4.90
68743;BMP180;55725;42.758;26.702;2023-03-01T00:44:08;100008.00;;;4.90
68743;BMP180;55725;42.758;26.702;2023-03-01T00:45:49;100013.00;;;4.90
68743;BMP180;55725;42.758;26.702;2023-03-01T00:47:29;100013.00;;;4.90
68743;BMP180;55725;42.758;26.702;2023-03-01T00:49:09;100020.00;;;4.80
68743;BMP180;55725;42.758;26.702;2023-03-01T00:50:49;100022.00;;;4.80
68743;BMP180;55725;42.758;26.702;2023-03-01T00:52:30;100016.00;;;4.80
68743;BMP180;55725;42.758;26.702;2023-03-01T00:54:10;100026.00;;;4.90
68743;BMP180;55725;42.758;26.702;2023-03-01T00:55:50;100018.00;;;4.90
68743;BMP180;55725;42.758;26.702;2023-03-01T00:57:31;100016.00;;;4.90
68743;BMP180;55725;42.758;26.702;2023-03-01T00:59:11;100032.00;;;5.00
68743;BMP180;55725;42.758;26.702;2023-03-01T01:00:51;100028.00;;;5.20
68743;BMP180;55725;42.758;26.702;2023-03-01T01:02:33;100025.00;;;5.20
68743;BMP180;55725;42.758;26.702;2023-03-01T01:04:13;100029.00;;;5.50
68743;BMP180;55725;42.758;26.702;2023-03-01T01:05:54;100011.00;;;5.60
68743;BMP180;55725;42.758;26.702;2023-03-01T01:07:34;100019.00;;;5.40
68743;BMP180;55725;42.758;26.702;2023-03-01T01:09:16;100011.00;;;5.60
68743;BMP180;55725;42.758;26.702;2023-03-01T01:10:59;100002.00;;;5.50
68743;BMP180;55725;42.758;26.702;2023-03-01T01:12:39;100011.00;;;5.50
68743;BMP180;55725;42.758;26.702;2023-03-01T01:14:19;100010.00;;;5.50
68743;BMP180;55725;42.758;26.702;2023-03-01T01:16:00;100013.00;;;5.50
68743;BMP180;55725;42.758;26.702;2023-03-01T01:17:41;100010.00;;;5.10
68743;BMP180;55725;42.758;26.702;2023-03-01T01:19:21;100009.00;;;5.20
68743;BMP180;55725;42.758;26.702;2023-03-01T01:21:06;100013.00;;;5.30
68743;BMP180;55725;42.758;26.702;2023-03-01T01:22:47;100009.00;;;5.30
68743;BMP180;55725;42.758;26.702;2023-03-01T01:24:27;100010.00;;;5.00
68743;BMP180;55725;42.758;26.702;2023-03-01T01:26:09;100010.00;;;5.20
68743;BMP180;55725;42.758;26.702;2023-03-01T01:27:50;99994.00;;;5.10
68743;BMP180;55725;42.758;26.702;2023-03-01T01:29:30;99996.00;;;5.00
68743;BMP180;55725;42.758;26.702;2023-03-01T01:31:10;99994.00;;;5.00
68743;BMP180;55725;42.758;26.702;2023-03-01T01:32:51;99996.00;;;4.90
68743;BMP180;55725;42.758;26.702;2023-03-01T01:34:31;99995.00;;;5.00
68743;BMP180;55725;42.758;26.702;2023-03-01T01:36:11;99992.00;;;4.90
68743;BMP180;55725;42.758;26.702;2023-03-01T01:37:52;100008.00;;;4.90
68743;BMP180;55725;42.758;26.702;2023-03-01T01:39:32;100001.00;;;4.90
68743;BMP180;55725;42.758;26.702;2023-03-01T01:41:13;99999.00;;;4.90
68743;BMP180;55725;42.758;26.702;2023-03-01T01:42:53;99989.00;;;4.90
68743;BMP180;55725;42.758;26.702;2023-03-01T01:44:33;100001.00;;;4.80
68743;BMP180;55725;42.758;26.702;2023-03-01T01:48:05;100001.00;;;4.90
68743;BMP180;55725;42.758;26.702;2023-03-01T01:49:51;100000.00;;;4.80
68743;BMP180;55725;42.758;26.702;2023-03-01T01:51:37;100002.00;;;4.80
68743;BMP180;55725;42.758;26.702;2023-03-01T01:53:18;100001.00;;;4.80
68743;BMP180;55725;42.758;26.702;2023-03-01T01:55:00;99994.00;;;4.80
68743;BMP180;55725;42.758;26.702;2023-03-01T01:56:44;99998.00;;;4.90
68743;BMP180;55725;42.758;26.702;2023-03-01T01:58:25;100000.00;;;4.90
68743;BMP180;55725;42.758;26.702;2023-03-01T02:00:10;100007.00;;;5.00
68743;BMP180;55725;42.758;26.702;2023-03-01T02:01:51;100001.00;;;4.80
68743;BMP180;55725;42.758;26.702;2023-03-01T02:03:32;100015.00;;;4.80
68743;BMP180;55725;42.758;26.702;2023-03-01T02:07:13;100001.00;;;4.90
68743;BMP180;55725;42.758;26.702;2023-03-01T02:08:55;100008.00;;;4.80
68743;BMP180;55725;42.758;26.702;2023-03-01T02:10:38;100009.00;;;4.90
68743;BMP180;55725;42.758;26.702;2023-03-01T02:12:20;100004.00;;;4.80
68743;BMP180;55725;42.758;26.702;2023-03-01T02:14:01;99994.00;;;4.90
68743;BMP180;55725;42.758;26.702;2023-03-01T02:15:42;99995.00;;;4.80
68743;BMP180;55725;42.758;26.702;2023-03-01T02:17:24;99990.00;;;4.80
68743;BMP180;55725;42.758;26.702;2023-03-01T02:19:04;99990.00;;;4.80
68743;BMP180;55725;42.758;26.702;2023-03-01T02:22:44;99980.00;;;4.80
68743;BMP180;55725;42.758;26.702;2023-03-01T02:26:11;99988.00;;;4.80
68743;BMP180;55725;42.758;26.702;2023-03-01T02:29:38;99980.00;;;4.70
68743;BMP180;55725;42.758;26.702;2023-03-01T02:31:19;99974.00;;;4.80
68743;BMP180;55725;42.758;26.702;2023-03-01T02:33:19;99973.00;;;4.70
68743;BMP180;55725;42.758;26.702;2023-03-01T02:34:59;99962.00;;;4.70
68743;BMP180;55725;42.758;26.702;2023-03-01T02:37:13;99953.00;;;4.70
68743;BMP180;55725;42.758;26.702;2023-03-01T02:38:47;99959.00;;;4.70
68743;BMP180;55725;42.758;26.702;2023-03-01T02:40:28;99955.00;;;4.60
68743;BMP180;55725;42.758;26.702;2023-03-01T02:42:10;99952.00;;;4.60
68743;BMP180;55725;42.758;26.702;2023-03-01T02:43:51;99949.00;;;4.60
68743;BMP180;55725;42.758;26.702;2023-03-01T02:45:31;99946.00;;;4.60
68743;BMP180;55725;42.758;26.702;2023-03-01T02:47:11;99947.00;;;4.60
68743;BMP180;55725;42.758;26.702;2023-03-01T02:48:53;99937.00;;;4.60
68743;BMP180;55725;42.758;26.702;2023-03-01T02:50:41;99945.00;;;4.60
68743;BMP180;55725;42.758;26.702;2023-03-01T02:52:33;99957.00;;;4.60
68743;BMP180;55725;42.758;26.702;2023-03-01T02:56:01;99951.00;;;4.60
68743;BMP180;55725;42.758;26.702;2023-03-01T02:57:43;99950.00;;;4.60
68743;BMP180;55725;42.758;26.702;2023-03-01T02:59:28;99959.00;;;4.70
68743;BMP180;55725;42.758;26.702;2023-03-01T03:01:09;99957.00;;;4.60
68743;BMP180;55725;42.758;26.702;2023-03-01T03:02:51;99968.00;;;4.70
68743;BMP180;55725;42.758;26.702;2023-03-01T03:04:32;99963.00;;;4.70
68743;BMP180;55725;42.758;26.702;2023-03-01T03:06:12;99970.00;;;4.60
68743;BMP180;55725;42.758;26.702;2023-03-01T03:07:52;99973.00;;;4.70
68743;BMP180;55725;42.758;26.702;2023-03-01T03:09:33;99975.00;;;4.80
68743;BMP180;55725;42.758;26.702;2023-03-01T03:11:13;99968.00;;;4.80
68743;BMP180;55725;42.758;26.702;2023-03-01T03:12:57;99965.00;;;4.80
68743;BMP180;55725;42.758;26.702;2023-03-01T03:14:38;99964.00;;;4.60
68743;BMP180;55725;42.758;26.702;2023-03-01T03:16:19;99958.00;;;4.60
68743;BMP180;55725;42.758;26.702;2023-03-01T03:17:59;99968.00;;;4.60
68743;BMP180;55725;42.758;26.702;2023-03-01T03:19:39;99960.00;;;4.70
68743;BMP180;55725;42.758;26.702;2023-03-01T03:21:19;99960.00;;;4.60
68743;BMP180;55725;42.758;26.702;2023-03-01T03:23:00;99968.00;;;4.60
68743;BMP180;55725;42.758;26.702;2023-03-01T03:24:40;99968.00;;;4.60
68743;BMP180;55725;42.758;26.702;2023-03-01T03:26:20;99975.00;;;4.70
68743;BMP180;55725;42.758;26.702;2023-03-01T03:28:01;99985.00;;;4.70
68743;BMP180;55725;42.758;26.702;2023-03-01T03:29:41;99973.00;;;4.70
68743;BMP180;55725;42.758;26.702;2023-03-01T03:31:21;99985.00;;;4.70
68743;BMP180;55725;42.758;26.702;2023-03-01T03:33:02;99974.00;;;4.60
68743;BMP180;55725;42.758;26.702;2023-03-01T03:34:43;99968.00;;;4.70
68743;BMP180;55725;42.758;26.702;2023-03-01T03:36:23;99966.00;;;4.60
68743;BMP180;55725;42.758;26.702;2023-03-01T03:38:06;99970.00;;;4.70
68743;BMP180;55725;42.758;26.702;2023-03-01T03:39:46;99973.00;;;4.60
68743;BMP180;55725;42.758;26.702;2023-03-01T03:41:26;99973.00;;;4.70
68743;BMP180;55725;42.758;26.702;2023-03-01T03:43:08;99978.00;;;4.70
68743;BMP180;55725;42.758;26.702;2023-03-01T03:44:49;99968.00;;;4.70
68743;BMP180;55725;42.758;26.702;2023-03-01T03:46:29;99963.00;;;4.70
68743;BMP180;55725;42.758;26.702;2023-03-01T03:48:10;99965.00;;;4.70
68743;BMP180;55725;42.758;26.702;2023-03-01T03:49:50;99974.00;;;4.60
68743;BMP180;55725;42.758;26.702;2023-03-01T03:51:31;99969.00;;;4.70
68743;BMP180;55725;42.758;26.702;2023-03-01T03:53:11;99966.00;;;4.70
68743;BMP180;55725;42.758;26.702;2023-03-01T03:54:51;99970.00;;;4.70
68743;BMP180;55725;42.758;26.702;2023-03-01T03:56:32;99979.00;;;4.70
68743;BMP180;55725;42.758;26.702;2023-03-01T03:58:12;99968.00;;;4.60
68743;BMP180;55725;42.758;26.702;2023-03-01T03:59:52;99967.00;;;4.60
68743;BMP180;55725;42.758;26.702;2023-03-01T04:01:33;99962.00;;;4.70
68743;BMP180;55725;42.758;26.702;2023-03-01T04:03:13;99965.00;;;4.60
68743;BMP180;55725;42.758;26.702;2023-03-01T04:04:54;99963.00;;;4.70
68743;BMP180;55725;42.758;26.702;2023-03-01T04:06:35;99959.00;;;4.60
68743;BMP180;55725;42.758;26.702;2023-03-01T04:08:15;99961.00;;;4.70
68743;BMP180;55725;42.758;26.702;2023-03-01T04:09:56;99964.00;;;4.60
68743;BMP180;55725;42.758;26.702;2023-03-01T04:11:36;99969.00;;;4.80
68743;BMP180;55725;42.758;26.702;2023-03-01T04:13:19;99971.00;;;4.70
68743;BMP180;55725;42.758;26.702;2023-03-01T04:15:00;99965.00;;;4.70
68743;BMP180;55725;42.758;26.702;2023-03-01T04:16:41;99970.00;;;4.80
68743;BMP180;55725;42.758;26.702;2023-03-01T04:18:22;99957.00;;;4.80
68743;BMP180;55725;42.758;26.702;2023-03-01T04:20:03;99956.00;;;4.80
68743;BMP180;55725;42.758;26.702;2023-03-01T04:21:45;99956.00;;;4.80
68743;BMP180;55725;42.758;26.702;2023-03-01T04:23:26;99959.00;;;4.80
68743;BMP180;55725;42.758;26.702;2023-03-01T04:25:06;99953.00;;;4.80
68743;BMP180;55725;42.758;26.702;2023-03-01T04:26:46;99960.00;;;4.70
68743;BMP180;55725;42.758;26.702;2023-03-01T04:28:28;99956.00;;;4.70
68743;BMP180;55725;42.758;26.702;2023-03-01T04:30:09;99963.00;;;4.80
68743;BMP180;55725;42.758;26.702;2023-03-01T04:31:49;99950.00;;;4.80
68743;BMP180;55725;42.758;26.702;2023-03-01T04:33:29;99951.00;;;4.70
68743;BMP180;55725;42.758;26.702;2023-03-01T04:35:10;99951.00;;;4.80
68743;BMP180;55725;42.758;26.702;2023-03-01T04:36:50;99957.00;;;4.80
68743;BMP180;55725;42.758;26.702;2023-03-01T04:38:30;99952.00;;;4.80
68743;BMP180;55725;42.758;26.702;2023-03-01T04:40:11;99951.00;;;4.90
68743;BMP180;55725;42.758;26.702;2023-03-01T04:41:56;99955.00;;;4.90
68743;BMP180;55725;42.758;26.702;2023-03-01T04:43:36;99946.00;;;4.90
68743;BMP180;55725;42.758;26.702;2023-03-01T04:45:17;99939.00;;;4.80
68743;BMP180;55725;42.758;26.702;2023-03-01T04:46:57;99955.00;;;4.70
68743;BMP180;55725;42.758;26.702;2023-03-01T04:48:38;99942.00;;;4.80
68743;BMP180;55725;42.758;26.702;2023-03-01T04:50:18;99930.00;;;4.70
68743;BMP180;55725;42.758;26.702;2023-03-01T04:52:03;99942.00;;;4.70
68743;BMP180;55725;42.758;26.702;2023-03-01T04:53:44;99942.00;;;4.70
68743;BMP180;55725;42.758;26.702;2023-03-01T04:55:27;99933.00;;;4.80
68743;BMP180;55725;42.758;26.702;2023-03-01T04:57:07;99934.00;;;4.70
68743;BMP180;55725;42.758;26.702;2023-03-01T04:58:48;99938.00;;;4.70
68743;BMP180;55725;42.758;26.702;2023-03-01T05:00:28;99938.00;;;4.70
68743;BMP180;55725;42.758;26.702;2023-03-01T05:02:08;99936.00;;;4.60
68743;BMP180;55725;42.758;26.702;2023-03-01T05:03:50;99942.00;;;4.70
68743;BMP180;55725;42.758;26.702;2023-03-01T05:05:34;99936.00;;;4.60
68743;BMP180;55725;42.758;26.702;2023-03-01T05:07:16;99940.00;;;4.70
68743;BMP180;55725;42.758;26.702;2023-03-01T05:08:59;99947.00;;;4.90
68743;BMP180;55725;42.758;26.702;2023-03-01T05:10:39;99946.00;;;5.00
68743;BMP180;55725;42.758;26.702;2023-03-01T05:12:20;99947.00;;;5.00
68743;BMP180;55725;42.758;26.702;2023-03-01T05:14:04;99945.00;;;4.80
68743;BMP180;55725;42.758;26.702;2023-03-01T05:15:45;99948.00;;;4.80
68743;BMP180;55725;42.758;26.702;2023-03-01T05:17:25;99951.00;;;4.70
68743;BMP180;55725;42.758;26.702;2023-03-01T05:19:05;99951.00;;;4.80
68743;BMP180;55725;42.758;26.702;2023-03-01T05:20:51;99949.00;;;4.80
68743;BMP180;55725;42.758;26.702;2023-03-01T05:22:32;99956.00;;;4.70
68743;BMP180;55725;42.758;26.702;2023-03-01T05:24:12;99956.00;;;4.70
68743;BMP180;55725;42.758;26.702;2023-03-01T05:25:52;99950.00;;;4.70
68743;BMP180;55725;42.758;26.702;2023-03-01T05:27:33;99947.00;;;4.80
68743;BMP180;55725;42.758;26.702;2023-03-01T05:29:14;99952.00;;;4.90
68743;BMP180;55725;42.758;26.702;2023-03-01T05:30:54;99958.00;;;4.90
68743;BMP180;55725;42.758;26.702;2023-03-01T05:32:34;99953.00;;;4.70
68743;BMP180;55725;42.758;26.702;2023-03-01T05:34:15;99956.00;;;4.80
68743;BMP180;55725;42.758;26.702;2023-03-01T05:35:59;99956.00;;;5.00
68743;BMP180;55725;42.758;26.702;2023-03-01T05:37:40;99958.00;;;5.20
68743;BMP180;55725;42.758;26.702;2023-03-01T05:39:22;99958.00;;;5.00
68743;BMP180;55725;42.758;26.702;2023-03-01T05:41:03;99964.00;;;4.90
68743;BMP180;55725;42.758;26.702;2023-03-01T05:42:47;99964.00;;;4.80
68743;BMP180;55725;42.758;26.702;2023-03-01T05:44:28;99965.00;;;5.00
68743;BMP180;55725;42.758;26.702;2023-03-01T05:46:09;99970.00;;;4.90
68743;BMP180;55725;42.758;26.702;2023-03-01T05:47:52;99966.00;;;5.00
68743;BMP180;55725;42.758;26.702;2023-03-01T05:49:33;99969.00;;;4.90
68743;BMP180;55725;42.758;26.702;2023-03-01T05:51:13;99978.00;;;4.80
68743;BMP180;55725;42.758;26.702;2023-03-01T05:53:00;99972.00;;;4.90
68743;BMP180;55725;42.758;26.702;2023-03-01T05:54:41;99964.00;;;4.90
68743;BMP180;55725;42.758;26.702;2023-03-01T05:56:21;99972.00;;;4.80
68743;BMP180;55725;42.758;26.702;2023-03-01T05:58:03;99977.00;;;5.00
68743;BMP180;55725;42.758;26.702;2023-03-01T05:59:45;99962.00;;;5.00
68743;BMP180;55725;42.758;26.702;2023-03-01T06:01:25;99971.00;;;4.90
68743;BMP180;55725;42.758;26.702;2023-03-01T06:03:05;99972.00;;;4.90
68743;BMP180;55725;42.758;26.702;2023-03-01T06:04:46;99978.00;;;5.00
68743;BMP180;55725;42.758;26.702;2023-03-01T06:06:26;99983.00;;;5.00
68743;BMP180;55725;42.758;26.702;2023-03-01T06:08:06;99985.00;;;4.90
68743;BMP180;55725;42.758;26.702;2023-03-01T06:09:47;99994.00;;;5.00
68743;BMP180;55725;42.758;26.702;2023-03-01T06:11:27;99999.00;;;5.10
68743;BMP180;55725;42.758;26.702;2023-03-01T06:13:07;100003.00;;;5.10
68743;BMP180;55725;42.758;26.702;2023-03-01T06:14:48;99999.00;;;5.10
68743;BMP180;55725;42.758;26.702;2023-03-01T06:16:28;99995.00;;;5.20
68743;BMP180;55725;42.758;26.702;2023-03-01T06:18:08;99994.00;;;5.40
68743;BMP180;55725;42.758;26.702;2023-03-01T06:19:49;99987.00;;;5.30
68743;BMP180;55725;42.758;26.702;2023-03-01T06:21:29;99979.00;;;5.00
68743;BMP180;55725;42.758;26.702;2023-03-01T06:23:09;99979.00;;;5.10
68743;BMP180;55725;42.758;26.702;2023-03-01T06:24:50;99976.00;;;5.20
68743;BMP180;55725;42.758;26.702;2023-03-01T06:26:30;99969.00;;;5.10
68743;BMP180;55725;42.758;26.702;2023-03-01T06:28:10;99976.00;;;5.10
68743;BMP180;55725;42.758;26.702;2023-03-01T06:29:50;99975.00;;;5.10
68743;BMP180;55725;42.758;26.702;2023-03-01T06:31:31;99976.00;;;5.10
68743;BMP180;55725;42.758;26.702;2023-03-01T06:33:11;99977.00;;;5.00
68743;BMP180;55725;42.758;26.702;2023-03-01T06:34:51;99972.00;;;5.00
68743;BMP180;55725;42.758;26.702;2023-03-01T06:36:32;99985.00;;;5.10
68743;BMP180;55725;42.758;26.702;2023-03-01T06:38:12;99972.00;;;5.20
68743;BMP180;55725;42.758;26.702;2023-03-01T06:39:54;99974.00;;;5.20
68743;BMP180;55725;42.758;26.702;2023-03-01T06:41:35;99976.00;;;5.00
68743;BMP180;55725;42.758;26.702;2023-03-01T06:43:15;99969.00;;;5.20
68743;BMP180;55725;42.758;26.702;2023-03-01T06:44:55;99972.00;;;5.40
68743;BMP180;55725;42.758;26.702;2023-03-01T06:46:36;99968.00;;;5.30
68743;BMP180;55725;42.758;26.702;2023-03-01T06:48:16;99980.00;;;5.20
68743;BMP180;55725;42.758;26.702;2023-03-01T06:49:56;99972.00;;;5.00
68743;BMP180;55725;42.758;26.702;2023-03-01T06:51:37;99970.00;;;5.10
68743;BMP180;55725;42.758;26.702;2023-03-01T06:53:17;99970.00;;;5.20
68743;BMP180;55725;42.758;26.702;2023-03-01T06:54:57;99968.00;;;5.30
68743;BMP180;55725;42.758;26.702;2023-03-01T06:56:38;99967.00;;;5.40
68743;BMP180;55725;42.758;26.702;2023-03-01T06:58:18;99966.00;;;5.20
68743;BMP180;55725;42.758;26.702;2023-03-01T06:59:58;99971.00;;;5.40
68743;BMP180;55725;42.758;26.702;2023-03-01T07:01:39;99978.00;;;5.50
68743;BMP180;55725;42.758;26.702;2023-03-01T07:03:19;99969.00;;;5.20
68743;BMP180;55725;42.758;26.702;2023-03-01T07:04:59;99970.00;;;5.30
68743;BMP180;55725;42.758;26.702;2023-03-01T07:06:40;99973.00;;;5.20
68743;BMP180;55725;42.758;26.702;2023-03-01T07:08:20;99972.00;;;5.20
68743;BMP180;55725;42.758;26.702;2023-03-01T07:10:01;99970.00;;;5.20
68743;BMP180;55725;42.758;26.702;2023-03-01T07:11:41;99968.00;;;5.10
68743;BMP180;55725;42.758;26.702;2023-03-01T07:13:21;99964.00;;;5.20
68743;BMP180;55725;42.758;26.702;2023-03-01T07:15:02;99970.00;;;5.40
68743;BMP180;55725;42.758;26.702;2023-03-01T07:16:42;99963.00;;;5.30
68743;BMP180;55725;42.758;26.702;2023-03-01T07:18:22;99969.00;;;5.50
68743;BMP180;55725;42.758;26.702;2023-03-01T07:20:03;99970.00;;;5.30
68743;BMP180;55725;42.758;26.702;2023-03-01T07:21:43;99970.00;;;5.40
68743;BMP180;55725;42.758;26.702;2023-03-01T07:23:24;99971.00;;;5.40
68743;BMP180;55725;42.758;26.702;2023-03-01T07:25:04;99967.00;;;5.40
68743;BMP180;55725;42.758;26.702;2023-03-01T07:26:47;99963.00;;;5.30
68743;BMP180;55725;42.758;26.702;2023-03-01T07:28:28;99955.00;;;5.30
68743;BMP180;55725;42.758;26.702;2023-03-01T07:30:09;99964.00;;;5.30
68743;BMP180;55725;42.758;26.702;2023-03-01T07:31:49;99963.00;;;5.40
68743;BMP180;55725;42.758;26.702;2023-03-01T07:33:29;99964.00;;;5.50
68743;BMP180;55725;42.758;26.702;2023-03-01T07:35:10;99966.00;;;5.40
68743;BMP180;55725;42.758;26.702;2023-03-01T07:36:50;99960.00;;;5.20
68743;BMP180;55725;42.758;26.702;2023-03-01T07:38:30;99959.00;;;5.30
68743;BMP180;55725;42.758;26.702;2023-03-01T07:40:11;99970.00;;;5.30
68743;BMP180;55725;42.758;26.702;2023-03-01T07:41:52;99970.00;;;5.40
68743;BMP180;55725;42.758;26.702;2023-03-01T07:43:32;99964.00;;;5.30
68743;BMP180;55725;42.758;26.702;2023-03-01T07:45:12;99970.00;;;5.20
68743;BMP180;55725;42.758;26.702;2023-03-01T07:46:55;99958.00;;;5.20
68743;BMP180;55725;42.758;26.702;2023-03-01T07:48:38;99953.00;;;5.40
68743;BMP180;55725;42.758;26.702;2023-03-01T07:50:18;99963.00;;;5.40
68743;BMP180;55725;42.758;26.702;2023-03-01T07:51:58;99954.00;;;5.20
68743;BMP180;55725;42.758;26.702;2023-03-01T07:53:39;99952.00;;;5.30
68743;BMP180;55725;42.758;26.702;2023-03-01T07:55:19;99965.00;;;5.30
68743;BMP180;55725;42.758;26.702;2023-03-01T07:57:00;99957.00;;;5.10
68743;BMP180;55725;42.758;26.702;2023-03-01T07:58:41;99961.00;;;5.20
68743;BMP180;55725;42.758;26.702;2023-03-01T08:00:22;99957.00;;;5.30
68743;BMP180;55725;42.758;26.702;2023-03-01T08:02:02;99965.00;;;5.10
68743;BMP180;55725;42.758;26.702;2023-03-01T08:03:42;99969.00;;;5.20
68743;BMP180;55725;42.758;26.702;2023-03-01T08:05:23;99967.00;;;5.20
68743;BMP180;55725;42.758;26.702;2023-03-01T08:07:04;99955.00;;;5.20
68743;BMP180;55725;42.758;26.702;2023-03-01T08:08:45;99953.00;;;5.10
68743;BMP180;55725;42.758;26.702;2023-03-01T08:10:25;99968.00;;;5.20
68743;BMP180;55725;42.758;26.702;2023-03-01T08:12:06;99955.00;;;5.10
68743;BMP180;55725;42.758;26.702;2023-03-01T08:13:47;99960.00;;;5.30
68743;BMP180;55725;42.758;26.702;2023-03-01T08:15:27;99965.00;;;5.30
68743;BMP180;55725;42.758;26.702;2023-03-01T08:17:08;99954.00;;;5.30
68743;BMP180;55725;42.758;26.702;2023-03-01T08:18:48;99968.00;;;5.40
68743;BMP180;55725;42.758;26.702;2023-03-01T08:20:28;99968.00;;;5.40
68743;BMP180;55725;42.758;26.702;2023-03-01T08:22:09;99959.00;;;5.10
68743;BMP180;55725;42.758;26.702;2023-03-01T08:23:49;99961.00;;;5.20
68743;BMP180;55725;42.758;26.702;2023-03-01T08:25:29;99959.00;;;5.40
68743;BMP180;55725;42.758;26.702;2023-03-01T08:27:10;99965.00;;;5.40
68743;BMP180;55725;42.758;26.702;2023-03-01T08:28:52;99964.00;;;5.50
68743;BMP180;55725;42.758;26.702;2023-03-01T08:30:32;99963.00;;;5.40
68743;BMP180;55725;42.758;26.702;2023-03-01T08:32:12;99972.00;;;5.40
68743;BMP180;55725;42.758;26.702;2023-03-01T08:33:54;99967.00;;;5.50
68743;BMP180;55725;42.758;26.702;2023-03-01T08:35:35;99970.00;;;5.50
68743;BMP180;55725;42.758;26.702;2023-03-01T08:37:15;99975.00;;;5.50
68743;BMP180;55725;42.758;26.702;2023-03-01T08:38:56;99964.00;;;5.60
68743;BMP180;55725;42.758;26.702;2023-03-01T08:40:36;99971.00;;;5.50
68743;BMP180;55725;42.758;26.702;2023-03-01T08:42:16;99962.00;;;5.50
68743;BMP180;55725;42.758;26.702;2023-03-01T08:43:56;99974.00;;;5.50
68743;BMP180;55725;42.758;26.702;2023-03-01T08:45:39;99965.00;;;5.60
68743;BMP180;55725;42.758;26.702;2023-03-01T08:47:20;99969.00;;;5.50
68743;BMP180;55725;42.758;26.702;2023-03-01T08:49:00;99975.00;;;5.50
68743;BMP180;55725;42.758;26.702;2023-03-01T08:50:43;99968.00;;;5.60
68743;BMP180;55725;42.758;26.702;2023-03-01T08:52:23;99968.00;;;5.70
68743;BMP180;55725;42.758;26.702;2023-03-01T08:54:05;99975.00;;;5.70
68743;BMP180;55725;42.758;26.702;2023-03-01T08:55:45;99975.00;;;5.80
68743;BMP180;55725;42.758;26.702;2023-03-01T08:57:25;99971.00;;;5.90
68743;BMP180;55725;42.758;26.702;2023-03-01T08:59:06;99976.00;;;5.80
68743;BMP180;55725;42.758;26.702;2023-03-01T09:00:46;99971.00;;;5.70
68743;BMP180;55725;42.758;26.702;2023-03-01T09:02:26;99970.00;;;5.70
68743;BMP180;55725;42.758;26.702;2023-03-01T09:04:07;99967.00;;;5.70
68743;BMP180;55725;42.758;26.702;2023-03-01T09:05:47;99974.00;;;5.80
68743;BMP180;55725;42.758;26.702;2023-03-01T09:07:29;99972.00;;;5.80
68743;BMP180;55725;42.758;26.702;2023-03-01T09:09:13;99977.00;;;5.90
68743;BMP180;55725;42.758;26.702;2023-03-01T09:10:55;99980.00;;;5.90
68743;BMP180;55725;42.758;26.702;2023-03-01T09:12:35;99975.00;;;6.00
68743;BMP180;55725;42.758;26.702;2023-03-01T09:14:15;99969.00;;;5.60
68743;BMP180;55725;42.758;26.702;2023-03-01T09:15:56;99966.00;;;5.50
68743;BMP180;55725;42.758;26.702;2023-03-01T09:17:36;99968.00;;;5.50
68743;BMP180;55725;42.758;26.702;2023-03-01T09:19:16;99960.00;;;5.60
68743;BMP180;55725;42.758;26.702;2023-03-01T09:21:04;99950.00;;;5.70
68743;BMP180;55725;42.758;26.702;2023-03-01T09:22:47;99966.00;;;5.70
68743;BMP180;55725;42.758;26.702;2023-03-01T09:24:27;99965.00;;;5.50
68743;BMP180;55725;42.758;26.702;2023-03-01T09:26:25;99964.00;;;5.70
68743;BMP180;55725;42.758;26.702;2023-03-01T09:28:06;99964.00;;;5.80
68743;BMP180;55725;42.758;26.702;2023-03-01T09:29:46;99958.00;;;5.80
68743;BMP180;55725;42.758;26.702;2023-03-01T09:31:26;99953.00;;;6.00
68743;BMP180;55725;42.758;26.702;2023-03-01T09:33:07;99950.00;;;5.80
68743;BMP180;55725;42.758;26.702;2023-03-01T09:34:47;99937.00;;;5.70
68743;BMP180;55725;42.758;26.702;2023-03-01T09:36:46;99948.00;;;5.80
68743;BMP180;55725;42.758;26.702;2023-03-01T09:38:26;99955.00;;;5.90
68743;BMP180;55725;42.758;26.702;2023-03-01T09:40:08;99947.00;;;5.80
68743;BMP180;55725;42.758;26.702;2023-03-01T09:42:01;99956.00;;;6.00
68743;BMP180;55725;42.758;26.702;2023-03-01T09:43:49;99949.00;;;5.90
68743;BMP180;55725;42.758;26.702;2023-03-01T09:45:34;99950.00;;;5.80
68743;BMP180;55725;42.758;26.702;2023-03-01T09:47:19;99950.00;;;5.70
68743;BMP180;55725;42.758;26.702;2023-03-01T09:49:02;99957.00;;;5.70
68743;BMP180;55725;42.758;26.702;2023-03-01T09:50:45;99953.00;;;5.80
68743;BMP180;55725;42.758;26.702;2023-03-01T09:52:36;99946.00;;;5.90